createdAt,value
2017-09-13T00:00:32.887Z,0
2017-09-13T00:01:32.931Z,0
2017-09-13T00:02:32.931Z,0
2017-09-13T00:03:32.947Z,0
2017-09-13T00:04:32.980Z,0
2017-09-13T00:05:33.309Z,0
2017-09-13T00:06:33.327Z,0
2017-09-13T00:07:33.392Z,0
2017-09-13T00:08:33.051Z,0
2017-09-13T00:09:33.074Z,0
2017-09-13T00:10:33.096Z,0
2017-09-13T00:11:33.116Z,0
2017-09-13T00:12:33.130Z,0
2017-09-13T00:13:33.463Z,0
2017-09-13T00:14:33.181Z,0
2017-09-13T00:15:33.191Z,0
2017-09-13T00:16:33.225Z,0
2017-09-13T00:17:33.232Z,0
2017-09-13T00:18:33.256Z,0
2017-09-13T00:19:33.272Z,0
2017-09-13T00:20:33.293Z,0
2017-09-13T00:21:33.307Z,0
2017-09-13T00:22:33.335Z,0
2017-09-13T00:23:33.717Z,0
2017-09-13T00:24:33.374Z,0
2017-09-13T00:25:33.390Z,0
2017-09-13T00:26:33.426Z,0
2017-09-13T00:27:33.453Z,0
2017-09-13T00:28:33.457Z,0
2017-09-13T00:29:33.474Z,0
2017-09-13T00:30:33.688Z,0
2017-09-13T00:31:33.520Z,0
2017-09-13T00:32:33.860Z,0
2017-09-13T00:33:33.557Z,0
2017-09-13T00:34:33.882Z,0
2017-09-13T00:35:33.593Z,0
2017-09-13T00:36:33.950Z,0
2017-09-13T00:37:33.944Z,0
2017-09-13T00:38:33.698Z,0
2017-09-13T00:39:33.669Z,0
2017-09-13T00:40:33.696Z,0
2017-09-13T00:41:33.717Z,0
2017-09-13T00:42:33.730Z,0
2017-09-13T00:43:33.760Z,0
2017-09-13T00:44:33.784Z,0
2017-09-13T00:45:33.792Z,0
2017-09-13T00:46:33.823Z,0
2017-09-13T00:47:33.832Z,0
2017-09-13T00:48:34.168Z,0
2017-09-13T00:49:33.881Z,0
2017-09-13T00:50:33.895Z,0
2017-09-13T00:51:34.236Z,0
2017-09-13T00:52:33.924Z,0
2017-09-13T00:53:34.003Z,0
2017-09-13T00:54:33.974Z,0
2017-09-13T00:55:33.989Z,0
2017-09-13T00:56:34.016Z,0
2017-09-13T00:57:34.030Z,0
2017-09-13T00:58:34.055Z,0
2017-09-13T00:59:34.080Z,0
2017-09-13T01:00:34.114Z,0
2017-09-13T01:01:34.125Z,0
2017-09-13T01:02:34.437Z,0
2017-09-13T01:03:34.170Z,0
2017-09-13T01:04:34.168Z,0
2017-09-13T01:05:34.197Z,0
2017-09-13T01:06:34.217Z,0
2017-09-13T01:07:34.227Z,0
2017-09-13T01:08:34.262Z,0
2017-09-13T01:09:34.320Z,0
2017-09-13T01:10:34.598Z,0
2017-09-13T01:11:34.304Z,0
2017-09-13T01:12:34.320Z,0
2017-09-13T01:13:34.691Z,0
2017-09-13T01:14:34.672Z,0
2017-09-13T01:15:34.382Z,0
2017-09-13T01:16:34.405Z,0
2017-09-13T01:17:34.430Z,0
2017-09-13T01:18:34.453Z,0
2017-09-13T01:19:34.459Z,0
2017-09-13T01:20:35.105Z,0
2017-09-13T01:21:34.513Z,0
2017-09-13T01:22:34.524Z,0
2017-09-13T01:23:34.549Z,0
2017-09-13T01:24:34.936Z,0
2017-09-13T01:25:34.586Z,0
2017-09-13T01:26:34.600Z,0
2017-09-13T01:27:34.626Z,0
2017-09-13T01:28:34.639Z,0
2017-09-13T01:29:34.659Z,0
2017-09-13T01:30:34.702Z,0
2017-09-13T01:31:34.694Z,0
2017-09-13T01:32:34.731Z,0
2017-09-13T01:33:34.742Z,0
2017-09-13T01:34:34.759Z,0
2017-09-13T01:35:34.774Z,0
2017-09-13T01:36:34.796Z,0
2017-09-13T01:37:34.823Z,0
2017-09-13T01:38:34.838Z,0
2017-09-13T01:39:34.907Z,0
2017-09-13T01:40:35.189Z,0
2017-09-13T01:41:34.895Z,0
2017-09-13T01:42:35.218Z,0
2017-09-13T01:43:35.267Z,0
2017-09-13T01:44:35.262Z,0
2017-09-13T01:45:34.974Z,0
2017-09-13T01:46:35.305Z,0
2017-09-13T01:47:35.012Z,0
2017-09-13T01:48:35.033Z,0
2017-09-13T01:49:35.050Z,0
2017-09-13T01:50:35.063Z,0
2017-09-13T01:51:35.090Z,0
2017-09-13T01:52:35.109Z,0
2017-09-13T01:53:35.130Z,0
2017-09-13T01:54:35.157Z,0
2017-09-13T01:55:35.171Z,0
2017-09-13T01:56:35.188Z,0
2017-09-13T01:57:35.251Z,0
2017-09-13T01:58:35.545Z,0
2017-09-13T01:59:35.242Z,0
2017-09-13T02:00:35.576Z,0
2017-09-13T02:01:35.603Z,0
2017-09-13T02:02:35.301Z,0
2017-09-13T02:03:35.323Z,0
2017-09-13T02:04:35.358Z,0
2017-09-13T02:05:35.682Z,0
2017-09-13T02:06:35.382Z,0
2017-09-13T02:07:35.395Z,0
2017-09-13T02:08:35.419Z,0
2017-09-13T02:09:35.439Z,0
2017-09-13T02:10:35.457Z,0
2017-09-13T02:11:35.474Z,0
2017-09-13T02:12:35.863Z,0
2017-09-13T02:13:35.508Z,0
2017-09-13T02:14:35.860Z,0
2017-09-13T02:15:35.555Z,0
2017-09-13T02:16:35.568Z,0
2017-09-13T02:17:35.910Z,0
2017-09-13T02:18:35.624Z,0
2017-09-13T02:19:35.943Z,0
2017-09-13T02:20:35.962Z,0
2017-09-13T02:21:35.668Z,0
2017-09-13T02:22:35.693Z,0
2017-09-13T02:23:35.703Z,0
2017-09-13T02:24:35.726Z,0
2017-09-13T02:25:35.768Z,0
2017-09-13T02:26:35.760Z,0
2017-09-13T02:27:35.782Z,0
2017-09-13T02:28:35.801Z,0
2017-09-13T02:29:36.130Z,0
2017-09-13T02:30:35.833Z,0
2017-09-13T02:31:35.857Z,0
2017-09-13T02:32:35.875Z,0
2017-09-13T02:33:35.895Z,0
2017-09-13T02:34:35.935Z,0
2017-09-13T02:35:35.945Z,0
2017-09-13T02:36:35.963Z,0
2017-09-13T02:37:36.129Z,0
2017-09-13T02:38:36.394Z,0
2017-09-13T02:39:36.010Z,0
2017-09-13T02:40:36.373Z,0
2017-09-13T02:41:36.365Z,0
2017-09-13T02:42:36.386Z,0
2017-09-13T02:43:36.089Z,0
2017-09-13T02:44:36.112Z,0
2017-09-13T02:45:36.436Z,0
2017-09-13T02:46:36.453Z,0
2017-09-13T02:47:36.167Z,0
2017-09-13T02:48:36.184Z,0
2017-09-13T02:49:36.219Z,0
2017-09-13T02:50:36.222Z,0
2017-09-13T02:51:36.239Z,0
2017-09-13T02:52:36.579Z,0
2017-09-13T02:53:36.600Z,0
2017-09-13T02:54:36.297Z,0
2017-09-13T02:55:37.577Z,0
2017-09-13T02:56:36.658Z,0
2017-09-13T02:57:36.360Z,0
2017-09-13T02:58:36.372Z,0
2017-09-13T02:59:36.397Z,0
2017-09-13T03:00:36.730Z,0
2017-09-13T03:01:36.430Z,0
2017-09-13T03:02:36.455Z,0
2017-09-13T03:03:36.470Z,0
2017-09-13T03:04:36.799Z,0
2017-09-13T03:05:36.516Z,0
2017-09-13T03:06:36.529Z,0
2017-09-13T03:07:36.547Z,0
2017-09-13T03:08:36.566Z,0
2017-09-13T03:09:36.920Z,0
2017-09-13T03:10:36.963Z,0
2017-09-13T03:11:36.624Z,0
2017-09-13T03:12:36.644Z,0
2017-09-13T03:13:36.677Z,0
2017-09-13T03:14:37.025Z,0
2017-09-13T03:15:37.012Z,0
2017-09-13T03:16:36.721Z,0
2017-09-13T03:17:36.745Z,0
2017-09-13T03:18:37.075Z,0
2017-09-13T03:19:36.793Z,0
2017-09-13T03:20:36.798Z,0
2017-09-13T03:21:36.816Z,0
2017-09-13T03:22:36.836Z,0
2017-09-13T03:23:37.201Z,0
2017-09-13T03:24:36.878Z,0
2017-09-13T03:25:36.913Z,0
2017-09-13T03:26:36.919Z,0
2017-09-13T03:27:36.930Z,0
2017-09-13T03:28:36.953Z,0
2017-09-13T03:29:37.030Z,0
2017-09-13T03:30:37.302Z,0
2017-09-13T03:31:37.024Z,0
2017-09-13T03:32:37.035Z,0
2017-09-13T03:33:37.051Z,0
2017-09-13T03:34:37.075Z,0
2017-09-13T03:35:37.089Z,0
2017-09-13T03:36:37.101Z,0
2017-09-13T03:37:37.123Z,0
2017-09-13T03:38:37.150Z,0
2017-09-13T03:39:37.165Z,0
2017-09-13T03:40:37.199Z,0
2017-09-13T03:41:37.204Z,0
2017-09-13T03:42:37.218Z,0
2017-09-13T03:43:37.237Z,0
2017-09-13T03:44:37.261Z,0
2017-09-13T03:45:37.295Z,0
2017-09-13T03:46:37.306Z,0
2017-09-13T03:47:37.372Z,0
2017-09-13T03:48:37.345Z,0
2017-09-13T03:49:37.975Z,0
2017-09-13T03:50:37.376Z,0
2017-09-13T03:51:37.706Z,0
2017-09-13T03:52:37.428Z,0
2017-09-13T03:53:37.746Z,0
2017-09-13T03:54:37.467Z,0
2017-09-13T03:55:37.483Z,0
2017-09-13T03:56:37.492Z,0
2017-09-13T03:57:37.507Z,0
2017-09-13T03:58:37.530Z,0
2017-09-13T03:59:37.553Z,0
2017-09-13T04:00:37.568Z,0
2017-09-13T04:01:37.593Z,0
2017-09-13T04:02:37.664Z,0
2017-09-13T04:03:37.625Z,0
2017-09-13T04:04:37.644Z,0
2017-09-13T04:05:37.664Z,0
2017-09-13T04:06:37.681Z,0
2017-09-13T04:07:37.727Z,0
2017-09-13T04:08:37.736Z,0
2017-09-13T04:09:37.743Z,0
2017-09-13T04:10:37.789Z,0
2017-09-13T04:11:38.095Z,0
2017-09-13T04:12:37.822Z,0
2017-09-13T04:13:38.136Z,0
2017-09-13T04:14:37.844Z,0
2017-09-13T04:15:37.862Z,0
2017-09-13T04:16:37.883Z,0
2017-09-13T04:17:37.944Z,0
2017-09-13T04:18:38.223Z,0
2017-09-13T04:19:37.941Z,0
2017-09-13T04:20:37.963Z,0
2017-09-13T04:21:37.975Z,0
2017-09-13T04:22:38.316Z,0
2017-09-13T04:23:38.017Z,0
2017-09-13T04:24:38.043Z,0
2017-09-13T04:25:38.359Z,0
2017-09-13T04:26:38.079Z,0
2017-09-13T04:27:38.088Z,0
2017-09-13T04:28:38.113Z,0
2017-09-13T04:29:38.128Z,0
2017-09-13T04:30:38.465Z,0
2017-09-13T04:31:38.187Z,0
2017-09-13T04:32:38.243Z,0
2017-09-13T04:33:38.208Z,0
2017-09-13T04:34:38.220Z,0
2017-09-13T04:35:38.235Z,0
2017-09-13T04:36:38.568Z,0
2017-09-13T04:37:38.291Z,0
2017-09-13T04:38:38.299Z,0
2017-09-13T04:39:38.324Z,0
2017-09-13T04:40:38.347Z,0
2017-09-13T04:41:38.361Z,0
2017-09-13T04:42:38.379Z,0
2017-09-13T04:43:38.395Z,0
2017-09-13T04:44:38.410Z,5
2017-09-13T04:45:38.431Z,5
2017-09-13T04:46:38.474Z,5
2017-09-13T04:47:38.477Z,5
2017-09-13T04:48:38.814Z,5
2017-09-13T04:49:39.188Z,5
2017-09-13T04:50:38.530Z,5
2017-09-13T04:51:38.554Z,5
2017-09-13T04:52:38.573Z,10
2017-09-13T04:53:38.591Z,10
2017-09-13T04:54:38.607Z,10
2017-09-13T04:55:38.943Z,10
2017-09-13T04:56:38.674Z,10
2017-09-13T04:57:38.669Z,10
2017-09-13T04:58:38.683Z,15
2017-09-13T04:59:38.708Z,15
2017-09-13T05:00:38.726Z,15
2017-09-13T05:01:38.761Z,15
2017-09-13T05:02:38.774Z,15
2017-09-13T05:03:38.803Z,20
2017-09-13T05:04:38.860Z,20
2017-09-13T05:05:38.814Z,20
2017-09-13T05:06:38.848Z,20
2017-09-13T05:07:38.858Z,20
2017-09-13T05:08:38.889Z,25
2017-09-13T05:09:38.901Z,25
2017-09-13T05:10:38.929Z,25
2017-09-13T05:11:38.959Z,25
2017-09-13T05:12:38.968Z,25
2017-09-13T05:13:39.291Z,25
2017-09-13T05:14:39.046Z,25
2017-09-13T05:15:39.325Z,30
2017-09-13T05:16:39.067Z,30
2017-09-13T05:17:39.051Z,30
2017-09-13T05:18:39.075Z,30
2017-09-13T05:19:39.133Z,30
2017-09-13T05:20:39.104Z,35
2017-09-13T05:21:39.130Z,35
2017-09-13T05:22:39.147Z,35
2017-09-13T05:23:39.474Z,40
2017-09-13T05:24:39.493Z,40
2017-09-13T05:25:39.214Z,45
2017-09-13T05:26:39.250Z,45
2017-09-13T05:27:39.240Z,45
2017-09-13T05:28:39.264Z,50
2017-09-13T05:29:39.274Z,50
2017-09-13T05:30:39.610Z,55
2017-09-13T05:31:39.642Z,55
2017-09-13T05:32:39.344Z,60
2017-09-13T05:33:39.353Z,60
2017-09-13T05:34:39.680Z,65
2017-09-13T05:35:39.390Z,65
2017-09-13T05:36:39.406Z,65
2017-09-13T05:37:39.478Z,70
2017-09-13T05:38:39.456Z,75
2017-09-13T05:39:39.473Z,80
2017-09-13T05:40:39.495Z,80
2017-09-13T05:41:39.510Z,80
2017-09-13T05:42:39.535Z,85
2017-09-13T05:43:39.548Z,85
2017-09-13T05:44:39.887Z,90
2017-09-13T05:45:39.890Z,90
2017-09-13T05:46:39.630Z,85
2017-09-13T05:47:39.626Z,90
2017-09-13T05:48:39.657Z,90
2017-09-13T05:49:39.666Z,90
2017-09-13T05:50:39.681Z,95
2017-09-13T05:51:40.022Z,100
2017-09-13T05:52:39.726Z,105
2017-09-13T05:53:39.788Z,110
2017-09-13T05:54:40.080Z,115
2017-09-13T05:55:40.093Z,115
2017-09-13T05:56:39.849Z,120
2017-09-13T05:57:39.812Z,125
2017-09-13T05:58:39.845Z,130
2017-09-13T05:59:40.171Z,135
2017-09-13T06:00:39.892Z,135
2017-09-13T06:01:39.903Z,125
2017-09-13T06:02:40.231Z,125
2017-09-13T06:03:39.938Z,130
2017-09-13T06:04:40.266Z,125
2017-09-13T06:05:39.993Z,125
2017-09-13T06:06:39.998Z,120
2017-09-13T06:07:40.075Z,115
2017-09-13T06:08:40.040Z,115
2017-09-13T06:09:40.056Z,115
2017-09-13T06:10:40.385Z,115
2017-09-13T06:11:40.396Z,110
2017-09-13T06:12:40.747Z,105
2017-09-13T06:13:40.142Z,105
2017-09-13T06:14:40.153Z,105
2017-09-13T06:15:40.173Z,100
2017-09-13T06:16:40.198Z,100
2017-09-13T06:17:40.577Z,105
2017-09-13T06:18:40.240Z,100
2017-09-13T06:19:40.569Z,105
2017-09-13T06:20:40.270Z,105
2017-09-13T06:21:40.298Z,105
2017-09-13T06:22:40.311Z,110
2017-09-13T06:23:40.330Z,110
2017-09-13T06:24:40.359Z,115
2017-09-13T06:25:40.394Z,120
2017-09-13T06:26:40.714Z,130
2017-09-13T06:27:40.434Z,135
2017-09-13T06:28:40.438Z,135
2017-09-13T06:29:40.451Z,140
2017-09-13T06:30:40.485Z,140
2017-09-13T06:31:40.497Z,140
2017-09-13T06:32:40.509Z,140
2017-09-13T06:33:40.903Z,140
2017-09-13T06:34:40.554Z,140
2017-09-13T06:35:40.573Z,145
2017-09-13T06:36:40.594Z,145
2017-09-13T06:37:40.623Z,145
2017-09-13T06:38:41.018Z,145
2017-09-13T06:39:40.979Z,150
2017-09-13T06:40:40.994Z,150
2017-09-13T06:41:40.701Z,160
2017-09-13T06:42:41.030Z,165
2017-09-13T06:43:41.069Z,165
2017-09-13T06:44:40.767Z,165
2017-09-13T06:45:41.103Z,165
2017-09-13T06:46:40.809Z,165
2017-09-13T06:47:41.141Z,160
2017-09-13T06:48:40.902Z,160
2017-09-13T06:49:41.202Z,155
2017-09-13T06:50:40.892Z,155
2017-09-13T06:51:41.229Z,150
2017-09-13T06:52:41.244Z,150
2017-09-13T06:53:40.958Z,155
2017-09-13T06:54:40.986Z,155
2017-09-13T06:55:41.299Z,155
2017-09-13T06:56:41.016Z,155
2017-09-13T06:57:41.034Z,160
2017-09-13T06:58:41.069Z,165
2017-09-13T06:59:41.077Z,165
2017-09-13T07:00:41.101Z,160
2017-09-13T07:01:41.121Z,155
2017-09-13T07:02:41.141Z,150
2017-09-13T07:03:41.161Z,145
2017-09-13T07:04:41.500Z,140
2017-09-13T07:05:41.410Z,140
2017-09-13T07:06:41.229Z,140
2017-09-13T07:07:41.571Z,145
2017-09-13T07:08:41.579Z,155
2017-09-13T07:09:41.289Z,160
2017-09-13T07:10:41.319Z,170
2017-09-13T07:11:41.342Z,175
2017-09-13T07:12:41.671Z,175
2017-09-13T07:13:41.382Z,185
2017-09-13T07:14:41.395Z,190
2017-09-13T07:15:41.421Z,195
2017-09-13T07:16:41.447Z,200
2017-09-13T07:17:41.487Z,205
2017-09-13T07:18:41.794Z,210
2017-09-13T07:19:41.500Z,225
2017-09-13T07:20:41.837Z,225
2017-09-13T07:21:41.552Z,220
2017-09-13T07:22:41.569Z,210
2017-09-13T07:23:41.597Z,205
2017-09-13T07:24:41.624Z,200
2017-09-13T07:25:41.947Z,195
2017-09-13T07:26:41.645Z,195
2017-09-13T07:27:41.679Z,200
2017-09-13T07:28:41.695Z,215
2017-09-13T07:29:42.037Z,235
2017-09-13T07:30:41.740Z,255
2017-09-13T07:31:41.760Z,265
2017-09-13T07:32:42.110Z,275
2017-09-13T07:33:41.808Z,275
2017-09-13T07:34:41.849Z,270
2017-09-13T07:35:41.852Z,265
2017-09-13T07:36:41.868Z,260
2017-09-13T07:37:41.943Z,250
2017-09-13T07:38:41.911Z,230
2017-09-13T07:39:42.251Z,210
2017-09-13T07:40:41.955Z,205
2017-09-13T07:41:41.985Z,210
2017-09-13T07:42:42.623Z,210
2017-09-13T07:43:42.032Z,210
2017-09-13T07:44:42.055Z,210
2017-09-13T07:45:42.064Z,205
2017-09-13T07:46:42.410Z,195
2017-09-13T07:47:42.113Z,185
2017-09-13T07:48:42.445Z,170
2017-09-13T07:49:42.156Z,165
2017-09-13T07:50:42.190Z,165
2017-09-13T07:51:42.199Z,165
2017-09-13T07:52:42.231Z,170
2017-09-13T07:53:42.249Z,170
2017-09-13T07:54:42.275Z,170
2017-09-13T07:55:42.289Z,170
2017-09-13T07:56:42.363Z,180
2017-09-13T07:57:42.322Z,170
2017-09-13T07:58:42.359Z,165
2017-09-13T07:59:42.682Z,170
2017-09-13T08:00:42.709Z,175
2017-09-13T08:01:42.732Z,165
2017-09-13T08:02:42.434Z,160
2017-09-13T08:03:42.776Z,165
2017-09-13T08:04:42.848Z,185
2017-09-13T08:05:42.503Z,210
2017-09-13T08:06:42.531Z,225
2017-09-13T08:07:42.866Z,225
2017-09-13T08:08:42.585Z,210
2017-09-13T08:09:42.590Z,200
2017-09-13T08:10:42.926Z,185
2017-09-13T08:11:42.954Z,170
2017-09-13T08:12:42.966Z,165
2017-09-13T08:13:43.003Z,165
2017-09-13T08:14:42.701Z,170
2017-09-13T08:15:43.043Z,170
2017-09-13T08:16:42.757Z,170
2017-09-13T08:17:42.782Z,180
2017-09-13T08:18:42.804Z,180
2017-09-13T08:19:42.826Z,180
2017-09-13T08:20:42.834Z,185
2017-09-13T08:21:42.866Z,200
2017-09-13T08:22:42.875Z,210
2017-09-13T08:23:42.898Z,225
2017-09-13T08:24:42.939Z,240
2017-09-13T08:25:42.944Z,245
2017-09-13T08:26:42.969Z,235
2017-09-13T08:27:42.992Z,220
2017-09-13T08:28:43.007Z,205
2017-09-13T08:29:43.038Z,195
2017-09-13T08:30:43.059Z,180
2017-09-13T08:31:43.126Z,175
2017-09-13T08:32:43.112Z,180
2017-09-13T08:33:43.134Z,190
2017-09-13T08:34:43.467Z,190
2017-09-13T08:35:43.166Z,185
2017-09-13T08:36:43.196Z,175
2017-09-13T08:37:43.218Z,170
2017-09-13T08:38:43.239Z,160
2017-09-13T08:39:43.256Z,165
2017-09-13T08:40:43.277Z,170
2017-09-13T08:41:43.610Z,180
2017-09-13T08:42:43.338Z,170
2017-09-13T08:43:43.708Z,155
2017-09-13T08:44:43.680Z,145
2017-09-13T08:45:43.392Z,150
2017-09-13T08:46:43.464Z,160
2017-09-13T08:47:43.434Z,175
2017-09-13T08:48:43.928Z,200
2017-09-13T08:49:43.475Z,215
2017-09-13T08:50:43.812Z,225
2017-09-13T08:51:43.576Z,215
2017-09-13T08:52:43.553Z,205
2017-09-13T08:53:43.885Z,190
2017-09-13T08:54:43.586Z,180
2017-09-13T08:55:43.609Z,175
2017-09-13T08:56:43.649Z,175
2017-09-13T08:57:43.662Z,165
2017-09-13T08:58:43.682Z,165
2017-09-13T08:59:44.016Z,155
2017-09-13T09:00:44.041Z,145
2017-09-13T09:01:44.067Z,135
2017-09-13T09:02:43.774Z,135
2017-09-13T09:03:43.993Z,135
2017-09-13T09:04:43.816Z,145
2017-09-13T09:05:43.838Z,165
2017-09-13T09:06:43.867Z,200
2017-09-13T09:07:43.882Z,235
2017-09-13T09:08:43.908Z,265
2017-09-13T09:09:43.928Z,290
2017-09-13T09:10:44.271Z,315
2017-09-13T09:11:43.978Z,310
2017-09-13T09:12:44.010Z,260
2017-09-13T09:13:44.336Z,215
2017-09-13T09:14:44.045Z,210
2017-09-13T09:15:44.066Z,245
2017-09-13T09:16:44.091Z,275
2017-09-13T09:17:44.441Z,265
2017-09-13T09:18:44.444Z,220
2017-09-13T09:19:44.468Z,210
2017-09-13T09:20:44.178Z,230
2017-09-13T09:21:44.515Z,280
2017-09-13T09:22:44.859Z,305
2017-09-13T09:23:44.250Z,290
2017-09-13T09:24:44.267Z,270
2017-09-13T09:25:44.308Z,250
2017-09-13T09:26:44.323Z,260
2017-09-13T09:27:44.401Z,275
2017-09-13T09:28:44.366Z,285
2017-09-13T09:29:44.390Z,285
2017-09-13T09:30:44.420Z,285
2017-09-13T09:31:44.434Z,295
2017-09-13T09:32:44.513Z,295
2017-09-13T09:33:44.789Z,280
2017-09-13T09:34:44.813Z,260
2017-09-13T09:35:44.533Z,250
2017-09-13T09:36:44.564Z,235
2017-09-13T09:37:44.594Z,230
2017-09-13T09:38:44.600Z,245
2017-09-13T09:39:44.620Z,250
2017-09-13T09:40:44.654Z,240
2017-09-13T09:41:44.994Z,240
2017-09-13T09:42:44.690Z,240
2017-09-13T09:43:44.728Z,245
2017-09-13T09:44:45.095Z,250
2017-09-13T09:45:44.822Z,235
2017-09-13T09:46:44.795Z,230
2017-09-13T09:47:44.826Z,245
2017-09-13T09:48:44.849Z,260
2017-09-13T09:49:45.182Z,255
2017-09-13T09:50:44.891Z,240
2017-09-13T09:51:45.014Z,240
2017-09-13T09:52:44.965Z,255
2017-09-13T09:53:44.998Z,270
2017-09-13T09:54:45.306Z,275
2017-09-13T09:55:45.676Z,290
2017-09-13T09:56:45.384Z,330
2017-09-13T09:57:45.065Z,320
2017-09-13T09:58:45.086Z,290
2017-09-13T09:59:45.428Z,245
2017-09-13T10:00:45.136Z,250
2017-09-13T10:01:45.203Z,260
2017-09-13T10:02:45.192Z,265
2017-09-13T10:03:45.559Z,275
2017-09-13T10:04:45.225Z,310
2017-09-13T10:05:45.280Z,365
2017-09-13T10:06:45.278Z,415
2017-09-13T10:07:45.303Z,395
2017-09-13T10:08:45.326Z,330
2017-09-13T10:09:45.364Z,300
2017-09-13T10:10:45.688Z,315
2017-09-13T10:11:45.395Z,360
2017-09-13T10:12:45.734Z,430
2017-09-13T10:13:45.491Z,505
2017-09-13T10:14:45.477Z,530
2017-09-13T10:15:45.524Z,565
2017-09-13T10:16:45.534Z,590
2017-09-13T10:17:45.953Z,470
2017-09-13T10:18:45.589Z,370
2017-09-13T10:19:45.656Z,315
2017-09-13T10:20:45.629Z,280
2017-09-13T10:21:45.960Z,260
2017-09-13T10:22:45.684Z,245
2017-09-13T10:23:46.063Z,210
2017-09-13T10:24:45.755Z,185
2017-09-13T10:25:45.755Z,155
2017-09-13T10:26:45.794Z,130
2017-09-13T10:27:45.812Z,120
2017-09-13T10:28:45.822Z,120
2017-09-13T10:29:45.861Z,130
2017-09-13T10:30:45.891Z,135
2017-09-13T10:31:45.904Z,140
2017-09-13T10:32:45.933Z,150
2017-09-13T10:33:46.259Z,165
2017-09-13T10:34:45.971Z,165
2017-09-13T10:35:46.003Z,170
2017-09-13T10:36:46.395Z,165
2017-09-13T10:37:46.047Z,170
2017-09-13T10:38:46.083Z,160
2017-09-13T10:39:46.088Z,150
2017-09-13T10:40:46.136Z,155
2017-09-13T10:41:46.155Z,155
2017-09-13T10:42:46.192Z,140
2017-09-13T10:43:46.194Z,130
2017-09-13T10:44:46.526Z,125
2017-09-13T10:45:46.558Z,120
2017-09-13T10:46:46.307Z,125
2017-09-13T10:47:46.282Z,135
2017-09-13T10:48:46.306Z,160
2017-09-13T10:49:46.330Z,175
2017-09-13T10:50:46.350Z,180
2017-09-13T10:51:46.765Z,180
2017-09-13T10:52:46.714Z,180
2017-09-13T10:53:46.743Z,185
2017-09-13T10:54:46.762Z,170
2017-09-13T10:55:46.480Z,165
2017-09-13T10:56:46.502Z,175
2017-09-13T10:57:46.512Z,185
2017-09-13T10:58:46.534Z,185
2017-09-13T10:59:46.554Z,190
2017-09-13T11:00:46.584Z,190
2017-09-13T11:01:46.613Z,190
2017-09-13T11:02:46.630Z,190
2017-09-13T11:03:46.655Z,200
2017-09-13T11:04:46.677Z,230
2017-09-13T11:05:46.705Z,225
2017-09-13T11:06:46.724Z,195
2017-09-13T11:07:46.738Z,200
2017-09-13T11:08:46.761Z,225
2017-09-13T11:09:46.788Z,240
2017-09-13T11:10:47.206Z,240
2017-09-13T11:11:46.834Z,235
2017-09-13T11:12:46.856Z,230
2017-09-13T11:13:46.883Z,235
2017-09-13T11:14:46.904Z,245
2017-09-13T11:15:47.245Z,260
2017-09-13T11:16:47.256Z,285
2017-09-13T11:17:46.967Z,295
2017-09-13T11:18:46.991Z,285
2017-09-13T11:19:47.077Z,275
2017-09-13T11:20:47.031Z,260
2017-09-13T11:21:47.065Z,230
2017-09-13T11:22:47.101Z,230
2017-09-13T11:23:47.104Z,250
2017-09-13T11:24:47.128Z,305
2017-09-13T11:25:47.157Z,340
2017-09-13T11:26:47.194Z,335
2017-09-13T11:27:47.261Z,300
2017-09-13T11:28:47.223Z,285
2017-09-13T11:29:47.255Z,305
2017-09-13T11:30:47.268Z,295
2017-09-13T11:31:47.291Z,335
2017-09-13T11:32:47.343Z,380
2017-09-13T11:33:47.335Z,400
2017-09-13T11:34:47.383Z,435
2017-09-13T11:35:47.385Z,410
2017-09-13T11:36:47.414Z,405
2017-09-13T11:37:47.432Z,465
2017-09-13T11:38:47.457Z,515
2017-09-13T11:39:47.481Z,570
2017-09-13T11:40:47.511Z,505
2017-09-13T11:41:47.535Z,435
2017-09-13T11:42:47.611Z,495
2017-09-13T11:43:47.579Z,410
2017-09-13T11:44:47.603Z,320
2017-09-13T11:45:47.633Z,360
2017-09-13T11:46:47.660Z,360
2017-09-13T11:47:47.677Z,345
2017-09-13T11:48:47.704Z,340
2017-09-13T11:49:47.725Z,340
2017-09-13T11:50:47.759Z,340
2017-09-13T11:51:47.799Z,360
2017-09-13T11:52:48.119Z,330
2017-09-13T11:53:47.822Z,320
2017-09-13T11:54:47.851Z,310
2017-09-13T11:55:47.871Z,285
2017-09-13T11:56:47.894Z,295
2017-09-13T11:57:47.930Z,310
2017-09-13T11:58:48.261Z,280
2017-09-13T11:59:47.978Z,275
2017-09-13T12:00:48.048Z,225
2017-09-13T12:01:48.023Z,240
2017-09-13T12:02:48.053Z,265
2017-09-13T12:03:48.388Z,260
2017-09-13T12:04:48.412Z,225
2017-09-13T12:05:48.438Z,190
2017-09-13T12:06:48.147Z,185
2017-09-13T12:07:48.493Z,190
2017-09-13T12:08:48.189Z,235
2017-09-13T12:09:48.215Z,320
2017-09-13T12:10:48.243Z,415
2017-09-13T12:11:48.907Z,515
2017-09-13T12:12:48.314Z,565
2017-09-13T12:13:48.337Z,870
2017-09-13T12:14:48.349Z,995
2017-09-13T12:15:48.368Z,990
2017-09-13T12:16:48.396Z,1125
2017-09-13T12:17:48.467Z,810
2017-09-13T12:18:48.761Z,550
2017-09-13T12:19:48.474Z,565
2017-09-13T12:20:48.499Z,1060
2017-09-13T12:21:48.838Z,1300
2017-09-13T12:22:48.552Z,615
2017-09-13T12:23:48.597Z,1295
2017-09-13T12:24:48.604Z,490
2017-09-13T12:25:48.937Z,505
2017-09-13T12:26:48.655Z,535
2017-09-13T12:27:48.679Z,855
2017-09-13T12:28:49.329Z,695
2017-09-13T12:29:48.727Z,545
2017-09-13T12:30:48.758Z,560
2017-09-13T12:31:48.787Z,590
2017-09-13T12:32:48.812Z,555
2017-09-13T12:33:48.842Z,570
2017-09-13T12:34:48.909Z,560
2017-09-13T12:35:49.504Z,550
2017-09-13T12:36:48.914Z,585
2017-09-13T12:37:48.944Z,875
2017-09-13T12:38:48.972Z,960
2017-09-13T12:39:48.991Z,480
2017-09-13T12:40:49.328Z,410
2017-09-13T12:41:49.054Z,395
2017-09-13T12:42:49.381Z,405
2017-09-13T12:43:49.103Z,420
2017-09-13T12:44:49.445Z,380
2017-09-13T12:45:49.453Z,370
2017-09-13T12:46:49.177Z,380
2017-09-13T12:47:49.205Z,390
2017-09-13T12:48:49.226Z,380
2017-09-13T12:49:49.251Z,415
2017-09-13T12:50:49.333Z,465
2017-09-13T12:51:49.631Z,375
2017-09-13T12:52:49.648Z,280
2017-09-13T12:53:49.363Z,260
2017-09-13T12:54:49.397Z,275
2017-09-13T12:55:49.405Z,240
2017-09-13T12:56:49.433Z,200
2017-09-13T12:57:49.466Z,150
2017-09-13T12:58:49.493Z,145
2017-09-13T12:59:49.516Z,155
2017-09-13T13:00:49.537Z,165
2017-09-13T13:01:49.566Z,150
2017-09-13T13:02:49.587Z,130
2017-09-13T13:03:49.616Z,125
2017-09-13T13:04:49.650Z,135
2017-09-13T13:05:49.682Z,160
2017-09-13T13:06:50.316Z,165
2017-09-13T13:07:49.721Z,170
2017-09-13T13:08:51.008Z,160
2017-09-13T13:09:49.792Z,150
2017-09-13T13:10:49.789Z,160
2017-09-13T13:11:49.819Z,165
2017-09-13T13:12:49.850Z,165
2017-09-13T13:13:49.874Z,165
2017-09-13T13:14:49.891Z,160
2017-09-13T13:15:50.237Z,215
2017-09-13T13:16:49.962Z,200
2017-09-13T13:17:49.964Z,165
2017-09-13T13:18:49.990Z,165
2017-09-13T13:19:50.018Z,160
2017-09-13T13:20:50.045Z,165
2017-09-13T13:21:50.068Z,170
2017-09-13T13:22:50.407Z,165
2017-09-13T13:23:50.170Z,150
2017-09-13T13:24:50.140Z,155
2017-09-13T13:25:50.161Z,155
2017-09-13T13:26:50.500Z,155
2017-09-13T13:27:50.214Z,195
2017-09-13T13:28:50.239Z,210
2017-09-13T13:29:50.259Z,225
2017-09-13T13:30:50.308Z,225
2017-09-13T13:31:50.311Z,190
2017-09-13T13:32:50.655Z,175
2017-09-13T13:33:50.364Z,170
2017-09-13T13:34:50.382Z,170
2017-09-13T13:35:50.746Z,175
2017-09-13T13:36:50.442Z,175
2017-09-13T13:37:50.460Z,170
2017-09-13T13:38:50.483Z,170
2017-09-13T13:39:50.820Z,160
2017-09-13T13:40:50.532Z,155
2017-09-13T13:41:50.615Z,150
2017-09-13T13:42:50.580Z,160
2017-09-13T13:43:50.658Z,165
2017-09-13T13:44:51.310Z,175
2017-09-13T13:45:50.696Z,185
2017-09-13T13:46:50.720Z,185
2017-09-13T13:47:51.015Z,210
2017-09-13T13:48:50.728Z,170
2017-09-13T13:49:50.774Z,170
2017-09-13T13:50:51.098Z,210
2017-09-13T13:51:50.801Z,205
2017-09-13T13:52:50.820Z,185
2017-09-13T13:53:50.852Z,190
2017-09-13T13:54:50.868Z,190
2017-09-13T13:55:50.895Z,195
2017-09-13T13:56:50.922Z,210
2017-09-13T13:57:50.998Z,225
2017-09-13T13:58:50.967Z,225
2017-09-13T13:59:50.991Z,225
2017-09-13T14:00:51.023Z,230
2017-09-13T14:01:51.042Z,290
2017-09-13T14:02:51.390Z,305
2017-09-13T14:03:51.090Z,280
2017-09-13T14:04:51.117Z,265
2017-09-13T14:05:51.131Z,245
2017-09-13T14:06:51.179Z,215
2017-09-13T14:07:51.216Z,200
2017-09-13T14:08:51.533Z,205